Time;durP1;ratioP1;P1;durP2;ratioP2;P2;SDS_P1;SDS_P2;PMS_P1;PMS_P2;Temp;Humidity;BMP_temperature;BMP_pressure;BME280_temperature;BME280_humidity;BME280_pressure;Samples;Min_cycle;Max_cycle;Signal;HPM_P1;HPM_P2
2022/02/08 00:00:25;;;;;;;;;;;16.10;34.40;;;;;;8338848;28;19923;-50
2022/02/08 00:04:26;;;;;;;;;;;16.20;34.50;;;;;;8338054;28;19921;-53
2022/02/08 00:08:27;;;;;;;;;;;16.10;34.50;;;;;;8335245;28;19920;-53
2022/02/08 00:12:27;;;;;;;;;;;16.10;34.40;;;;;;8316706;28;20398;-50
2022/02/08 00:16:28;;;;;;;;;;;16.10;34.50;;;;;;8333883;28;19925;-50
2022/02/08 00:20:28;;;;;;;;;;;16.10;34.50;;;;;;8316419;28;19917;-50
2022/02/08 00:24:29;;;;;;;;;;;16.10;34.50;;;;;;8333640;28;20369;-52
2022/02/08 00:28:29;;;;;;;;;;;16.10;34.50;;;;;;8334214;28;19921;-52
2022/02/08 00:32:30;;;;;;;;;;;16.10;34.50;;;;;;8334123;28;19913;-51
2022/02/08 00:36:30;;;;;;;;;;;16.10;34.50;;;;;;8333722;28;19929;-53
2022/02/08 00:40:31;;;;;;;;;;;16.10;34.50;;;;;;8333137;28;19918;-50
2022/02/08 00:44:39;;;;;;;;;;;16.10;34.50;;;;;;8302113;28;19917;-49
2022/02/08 00:48:49;;;;;;;;;;;16.10;34.50;;;;;;8304420;28;20008;-53
2022/02/08 00:52:49;;;;;;;;;;;16.10;34.50;;;;;;8301048;28;19940;-54
2022/02/08 00:56:49;;;;;;;;;;;16.10;34.60;;;;;;8300453;28;19925;-54
2022/02/08 01:00:50;;;;;;;;;;;16.00;34.50;;;;;;8282700;28;19918;-55
2022/02/08 01:04:57;;;;;;;;;;;16.00;34.50;;;;;;8282257;28;19921;-54
2022/02/08 01:09:10;;;;;;;;;;;16.10;34.50;;;;;;8306247;28;19914;-52
2022/02/08 01:13:11;;;;;;;;;;;16.00;34.50;;;;;;8302271;28;19917;-50
2022/02/08 01:17:13;;;;;;;;;;;16.10;34.50;;;;;;8282209;28;19933;-55
2022/02/08 01:21:13;;;;;;;;;;;16.00;34.50;;;;;;8294921;28;20393;-52
2022/02/08 01:25:20;;;;;;;;;;;16.00;34.50;;;;;;8299042;28;19922;-54
2022/02/08 01:29:36;;;;;;;;;;;16.00;34.50;;;;;;8306303;28;20348;-52
2022/02/08 01:34:03;;;;;;;;;;;16.00;34.50;;;;;;8303613;28;20374;-54
2022/02/08 01:38:04;;;;;;;;;;;16.00;34.50;;;;;;8298106;28;19926;-51
2022/02/08 01:46:51;;;;;;;;;;;16.00;34.50;;;;;;8298649;28;19917;-53
2022/02/08 01:50:36;;;;;;;;;;;16.00;34.60;;;;;;8298533;28;19913;-52
2022/02/08 01:54:36;;;;;;;;;;;16.00;34.50;;;;;;8298533;28;19925;-51
2022/02/08 01:58:37;;;;;;;;;;;16.00;34.60;;;;;;8298284;28;19922;-52
2022/02/08 02:02:37;;;;;;;;;;;16.00;34.50;;;;;;8298407;28;20404;-51
2022/02/08 02:06:38;;;;;;;;;;;16.00;34.60;;;;;;8298459;28;20341;-50
2022/02/08 02:10:39;;;;;;;;;;;16.00;34.60;;;;;;8296888;28;19918;-53
2022/02/08 02:14:40;;;;;;;;;;;16.00;34.60;;;;;;8298351;28;20393;-52
2022/02/08 02:18:40;;;;;;;;;;;16.00;34.60;;;;;;8298527;28;19960;-51
2022/02/08 02:22:41;;;;;;;;;;;15.90;34.50;;;;;;8297444;28;19959;-54
2022/02/08 02:26:42;;;;;;;;;;;16.00;34.60;;;;;;8280177;28;19918;-54
2022/02/08 02:30:42;;;;;;;;;;;15.90;34.60;;;;;;8297901;28;19975;-49
2022/02/08 02:34:47;;;;;;;;;;;15.90;34.50;;;;;;8297174;28;19925;-53
2022/02/08 02:38:47;;;;;;;;;;;15.90;34.60;;;;;;8297995;28;19997;-50
2022/02/08 02:42:48;;;;;;;;;;;15.90;34.60;;;;;;8297795;28;19925;-51
2022/02/08 02:46:49;;;;;;;;;;;15.90;34.60;;;;;;8296762;28;19924;-51
2022/02/08 02:50:53;;;;;;;;;;;15.90;34.60;;;;;;8278913;28;20310;-53
2022/02/08 02:54:54;;;;;;;;;;;15.90;34.60;;;;;;8296861;28;20400;-52
2022/02/08 02:59:01;;;;;;;;;;;15.90;34.60;;;;;;8279317;28;19917;-50
2022/02/08 03:03:15;;;;;;;;;;;15.90;34.60;;;;;;8279450;28;19917;-53
2022/02/08 03:20:12;;;;;;;;;;;15.90;34.60;;;;;;8296541;28;19960;-51
2022/02/08 03:24:13;;;;;;;;;;;15.90;34.60;;;;;;8296924;28;20378;-52
2022/02/08 03:28:13;;;;;;;;;;;15.90;34.60;;;;;;8296358;28;20386;-52
2022/02/08 03:32:17;;;;;;;;;;;15.90;34.70;;;;;;8296889;28;19928;-54
2022/02/08 03:36:18;;;;;;;;;;;15.80;34.60;;;;;;8296516;28;19929;-54
2022/02/08 03:40:31;;;;;;;;;;;15.80;34.60;;;;;;8296073;28;20290;-54
2022/02/08 03:44:32;;;;;;;;;;;15.90;34.60;;;;;;8279100;28;19913;-54
2022/02/08 03:48:35;;;;;;;;;;;15.90;34.60;;;;;;8296544;28;20032;-55
2022/02/08 03:52:38;;;;;;;;;;;15.80;34.60;;;;;;8296006;28;19918;-53
2022/02/08 03:56:38;;;;;;;;;;;15.80;34.60;;;;;;8278746;28;20025;-53
2022/02/08 04:01:04;;;;;;;;;;;15.80;34.70;;;;;;8304371;28;19917;-49
2022/02/08 04:05:14;;;;;;;;;;;15.80;34.80;;;;;;8334911;28;19956;-51
2022/02/08 04:09:17;;;;;;;;;;;15.80;34.80;;;;;;8340023;28;19921;-53
2022/02/08 04:13:23;;;;;;;;;;;15.90;34.80;;;;;;8334138;28;19943;-51
2022/02/08 04:17:42;;;;;;;;;;;15.90;34.80;;;;;;8341802;28;19925;-53
2022/02/08 04:43:08;;;;;;;;;;;16.00;34.80;;;;;;8333699;28;19917;-50
2022/02/08 04:47:28;;;;;;;;;;;16.00;34.70;;;;;;8358472;28;19917;-54
2022/02/08 04:51:35;;;;;;;;;;;16.00;34.70;;;;;;8333551;28;19921;-54
2022/02/08 04:55:46;;;;;;;;;;;16.00;35.20;;;;;;8334524;28;20369;-52
2022/02/08 05:34:07;;;;;;;;;;;15.90;34.60;;;;;;8305560;28;20393;-53
2022/02/08 05:34:36;;;;;;;;;;;15.90;34.70;;;;;;8299269;28;20363;-53
2022/02/08 05:46:57;;;;;;;;;;;15.90;34.60;;;;;;8299084;28;20258;-50
2022/02/08 05:54:58;;;;;;;;;;;15.90;34.70;;;;;;8299075;28;19925;-55
2022/02/08 05:58:58;;;;;;;;;;;15.80;34.60;;;;;;8298126;28;19939;-53
2022/02/08 06:03:03;;;;;;;;;;;15.90;34.70;;;;;;8298342;28;19997;-54
2022/02/08 06:07:03;;;;;;;;;;;15.90;34.70;;;;;;8298405;28;19918;-51
2022/02/08 06:11:13;;;;;;;;;;;15.80;34.60;;;;;;8297852;28;19917;-51
2022/02/08 06:15:16;;;;;;;;;;;15.80;34.60;;;;;;8303015;28;19925;-54
2022/02/08 06:19:17;;;;;;;;;;;15.80;34.60;;;;;;8297716;28;19972;-54
2022/02/08 06:23:17;;;;;;;;;;;15.80;34.70;;;;;;8297725;28;20294;-52
2022/02/08 06:27:18;;;;;;;;;;;15.80;34.70;;;;;;8298107;28;20310;-52
2022/02/08 06:31:18;;;;;;;;;;;15.80;34.70;;;;;;8297288;28;19921;-53
2022/02/08 06:35:28;;;;;;;;;;;15.80;34.70;;;;;;8298250;28;20326;-51
2022/02/08 06:39:34;;;;;;;;;;;15.80;34.70;;;;;;8297686;28;19964;-51
2022/02/08 06:43:34;;;;;;;;;;;15.80;34.70;;;;;;8297148;28;19924;-54
2022/02/08 06:47:39;;;;;;;;;;;15.80;34.70;;;;;;8297613;28;19921;-49
2022/02/08 06:51:39;;;;;;;;;;;15.80;34.70;;;;;;8297480;28;19936;-51
2022/02/08 06:55:40;;;;;;;;;;;15.70;34.60;;;;;;8297197;28;20016;-51
2022/02/08 06:59:49;;;;;;;;;;;15.80;34.70;;;;;;8297468;28;19930;-54
2022/02/08 07:03:52;;;;;;;;;;;15.70;34.60;;;;;;8301121;28;19922;-50
2022/02/08 07:07:52;;;;;;;;;;;15.80;34.70;;;;;;8296644;28;19917;-52
2022/02/08 07:11:56;;;;;;;;;;;15.70;34.60;;;;;;8297145;28;19968;-51
2022/02/08 07:15:57;;;;;;;;;;;15.70;34.70;;;;;;8297511;28;19980;-53
2022/02/08 07:19:57;;;;;;;;;;;15.70;34.70;;;;;;8296179;28;19941;-52
2022/02/08 07:23:57;;;;;;;;;;;15.70;34.70;;;;;;8297206;28;20337;-55
2022/02/08 07:27:58;;;;;;;;;;;15.70;34.60;;;;;;8296744;28;20048;-51
2022/02/08 07:32:01;;;;;;;;;;;15.70;34.70;;;;;;8296431;28;19918;-53
2022/02/08 07:36:42;;;;;;;;;;;15.70;34.60;;;;;;8303040;28;19925;-53
2022/02/08 07:44:32;;;;;;;;;;;15.70;34.60;;;;;;8302992;28;20263;-53
2022/02/08 07:48:32;;;;;;;;;;;15.70;34.60;;;;;;8302808;28;19922;-55
2022/02/08 07:52:33;;;;;;;;;;;15.70;34.60;;;;;;8302108;28;20278;-52
2022/02/08 07:56:33;;;;;;;;;;;15.80;34.60;;;;;;8302661;28;19921;-53
2022/02/08 08:00:34;;;;;;;;;;;15.80;34.60;;;;;;8302263;28;19921;-49
2022/02/08 08:04:35;;;;;;;;;;;15.80;34.60;;;;;;8300987;28;20011;-49
2022/02/08 08:08:36;;;;;;;;;;;15.80;34.60;;;;;;8302028;28;20294;-53
2022/02/08 08:12:37;;;;;;;;;;;15.80;34.50;;;;;;8302186;28;19991;-54
2022/02/08 08:16:55;;;;;;;;;;;15.80;34.50;;;;;;8301523;28;19925;-53
2022/02/08 08:20:56;;;;;;;;;;;15.90;34.60;;;;;;8301648;28;19921;-55
2022/02/08 08:24:57;;;;;;;;;;;15.80;34.50;;;;;;8301513;28;20011;-51
2022/02/08 08:28:57;;;;;;;;;;;15.80;34.40;;;;;;8300788;28;20322;-51
2022/02/08 08:32:58;;;;;;;;;;;15.90;34.50;;;;;;8301486;28;19924;-53
2022/02/08 08:36:58;;;;;;;;;;;15.90;34.50;;;;;;8301540;28;19922;-53
2022/02/08 08:53:19;;;;;;;;;;;15.80;34.50;;;;;;8334121;28;19917;-53
2022/02/08 08:57:19;;;;;;;;;;;15.80;34.50;;;;;;8333598;28;20393;-52
2022/02/08 09:01:20;;;;;;;;;;;15.80;34.50;;;;;;8332781;28;19913;-54
2022/02/08 09:05:21;;;;;;;;;;;15.90;34.50;;;;;;8333220;28;19921;-54
2022/02/08 09:09:25;;;;;;;;;;;15.90;34.50;;;;;;8332816;28;19913;-54
2022/02/08 09:13:45;;;;;;;;;;;15.80;34.50;;;;;;8332137;28;20340;-55
2022/02/08 09:30:14;;;;;;;;;;;15.90;34.50;;;;;;8301321;28;19925;-53
2022/02/08 09:34:15;;;;;;;;;;;15.90;34.50;;;;;;8298859;28;19953;-49
2022/02/08 09:38:16;;;;;;;;;;;15.80;34.50;;;;;;8299142;28;19928;-50
2022/02/08 09:42:17;;;;;;;;;;;15.90;34.50;;;;;;8299490;28;19939;-54
2022/02/08 09:46:18;;;;;;;;;;;15.80;34.50;;;;;;8298743;28;20440;-56
2022/02/08 09:50:26;;;;;;;;;;;15.90;34.50;;;;;;8298719;28;19918;-53
2022/02/08 09:54:27;;;;;;;;;;;15.80;34.50;;;;;;8302544;28;19913;-53
2022/02/08 09:58:27;;;;;;;;;;;15.90;34.50;;;;;;8297541;28;20399;-53
2022/02/08 10:02:28;;;;;;;;;;;15.90;34.50;;;;;;8298762;28;19914;-50
2022/02/08 10:06:29;;;;;;;;;;;15.90;34.50;;;;;;8298837;28;20271;-52
2022/02/08 10:10:30;;;;;;;;;;;15.90;34.50;;;;;;8297899;28;19918;-52
2022/02/08 10:22:53;;;;;;;;;;;15.90;34.50;;;;;;8298377;28;19918;-52
2022/02/08 10:27:02;;;;;;;;;;;15.90;34.50;;;;;;8298063;28;19918;-52
2022/02/08 10:31:20;;;;;;;;;;;16.00;34.50;;;;;;8300498;28;19918;-52
2022/02/08 10:39:58;;;;;;;;;;;16.00;34.50;;;;;;8301566;28;19960;-51
2022/02/08 10:44:01;;;;;;;;;;;16.00;34.50;;;;;;8297273;28;19945;-55
2022/02/08 10:48:03;;;;;;;;;;;16.00;34.50;;;;;;8297408;28;19913;-55
2022/02/08 10:52:06;;;;;;;;;;;16.00;34.40;;;;;;8297730;28;19917;-53
2022/02/08 10:56:11;;;;;;;;;;;16.00;34.40;;;;;;8296802;28;19948;-53
2022/02/08 11:00:12;;;;;;;;;;;16.00;34.40;;;;;;8297308;28;19918;-54
2022/02/08 11:04:19;;;;;;;;;;;16.10;34.50;;;;;;8295940;28;19926;-52
2022/02/08 11:08:43;;;;;;;;;;;16.10;34.50;;;;;;8301589;28;19936;-52
2022/02/08 11:29:30;;;;;;;;;;;16.10;34.40;;;;;;8303390;28;19921;-54
2022/02/08 11:33:51;;;;;;;;;;;16.10;34.50;;;;;;8307168;28;20005;-54
2022/02/08 11:42:57;;;;;;;;;;;16.10;34.40;;;;;;8292846;28;20021;-51
2022/02/08 11:56:01;;;;;;;;;;;16.10;34.40;;;;;;8301866;28;19926;-52
2022/02/08 12:04:39;;;;;;;;;;;16.20;34.50;;;;;;8337758;28;20316;-54
2022/02/08 12:08:30;;;;;;;;;;;16.20;34.40;;;;;;8367195;28;20400;-52
2022/02/08 12:33:58;;;;;;;;;;;16.30;34.30;;;;;;8337480;28;19924;-51
2022/02/08 13:03:51;;;;;;;;;;;16.30;34.20;;;;;;8333542;28;19921;-52
2022/02/08 14:20:46;;;;;;;;;;;16.50;34.10;;;;;;8329826;28;19917;-53
2022/02/08 14:25:27;;;;;;;;;;;16.50;34.10;;;;;;8328940;28;20420;-55
2022/02/08 14:29:30;;;;;;;;;;;16.50;34.10;;;;;;8324618;28;20013;-55
2022/02/08 14:34:10;;;;;;;;;;;16.50;34.10;;;;;;8292352;28;19983;-55
2022/02/08 15:12:40;;;;;;;;;;;16.60;34.00;;;;;;8266392;28;19932;-54
2022/02/08 15:16:40;;;;;;;;;;;16.60;33.90;;;;;;8299788;28;19918;-54
2022/02/08 15:20:41;;;;;;;;;;;16.60;34.00;;;;;;8334632;28;19924;-54
2022/02/08 15:24:42;;;;;;;;;;;16.50;34.00;;;;;;8334731;28;19923;-53
2022/02/08 15:28:42;;;;;;;;;;;16.50;33.90;;;;;;8333909;28;19917;-54
2022/02/08 15:32:43;;;;;;;;;;;16.60;34.00;;;;;;8334148;28;19932;-54
2022/02/08 15:36:43;;;;;;;;;;;16.50;33.90;;;;;;8332773;28;19918;-53
2022/02/08 15:40:45;;;;;;;;;;;16.60;33.90;;;;;;8333454;28;19924;-55
2022/02/08 15:44:48;;;;;;;;;;;16.50;33.90;;;;;;8334048;28;19999;-56
2022/02/08 15:48:50;;;;;;;;;;;16.50;33.90;;;;;;8334000;28;19924;-55
2022/02/08 15:57:19;;;;;;;;;;;16.60;34.00;;;;;;8333893;28;19940;-55
2022/02/08 16:01:40;;;;;;;;;;;16.50;33.90;;;;;;8332811;28;20083;-53
2022/02/08 16:05:58;;;;;;;;;;;16.50;33.90;;;;;;8333344;28;19920;-52
2022/02/08 16:10:05;;;;;;;;;;;16.50;33.90;;;;;;8336334;28;20012;-51
2022/02/08 16:14:16;;;;;;;;;;;16.50;33.90;;;;;;8332328;28;20361;-53
2022/02/08 16:18:26;;;;;;;;;;;16.50;33.90;;;;;;8334258;28;20373;-55
2022/02/08 16:27:19;;;;;;;;;;;16.50;34.00;;;;;;8311532;28;19920;-53
2022/02/08 16:32:12;;;;;;;;;;;16.50;34.00;;;;;;8331789;28;19925;-54
2022/02/08 16:49:21;;;;;;;;;;;16.50;34.00;;;;;;8331973;28;20274;-52
2022/02/08 16:53:25;;;;;;;;;;;16.50;34.00;;;;;;8331087;28;19947;-53
2022/02/08 16:57:39;;;;;;;;;;;16.50;34.10;;;;;;8335549;28;20317;-55
2022/02/08 17:01:40;;;;;;;;;;;16.50;34.60;;;;;;8330869;28;19923;-53
2022/02/08 17:05:40;;;;;;;;;;;16.50;34.10;;;;;;8331433;28;19917;-54
2022/02/08 17:45:11;;;;;;;;;;;16.40;34.10;;;;;;8332009;28;19959;-54
2022/02/08 17:47:47;;;;;;;;;;;16.40;34.20;;;;;;8330152;28;19963;-55
2022/02/08 17:51:48;;;;;;;;;;;16.50;34.20;;;;;;8330189;28;20009;-54
2022/02/08 17:55:48;;;;;;;;;;;16.40;34.20;;;;;;8329895;28;19917;-53
2022/02/08 17:59:49;;;;;;;;;;;16.40;34.20;;;;;;8330298;28;20293;-55
2022/02/08 18:03:50;;;;;;;;;;;16.40;34.20;;;;;;8330011;28;20313;-54
2022/02/08 18:07:51;;;;;;;;;;;16.40;34.20;;;;;;8329497;28;20382;-52
2022/02/08 18:11:51;;;;;;;;;;;16.40;34.20;;;;;;8329739;28;19925;-55
2022/02/08 18:15:52;;;;;;;;;;;16.40;34.20;;;;;;8330192;28;19914;-55
2022/02/08 18:24:26;;;;;;;;;;;16.40;34.20;;;;;;8334887;28;19964;-54
2022/02/08 18:28:45;;;;;;;;;;;16.40;34.20;;;;;;8331185;28;19921;-53
2022/02/08 19:15:21;;;;;;;;;;;16.40;34.20;;;;;;8335006;28;19925;-54
2022/02/08 19:19:39;;;;;;;;;;;16.40;34.20;;;;;;8334116;28;19913;-56
2022/02/08 19:23:40;;;;;;;;;;;16.40;34.20;;;;;;8341157;28;20003;-52
2022/02/08 19:27:43;;;;;;;;;;;16.40;34.20;;;;;;8334225;28;19913;-55
2022/02/08 19:31:44;;;;;;;;;;;16.40;34.20;;;;;;8333487;28;19925;-54
2022/02/08 19:35:45;;;;;;;;;;;16.40;34.20;;;;;;8334356;28;19953;-53
2022/02/08 19:39:46;;;;;;;;;;;16.40;34.20;;;;;;8333787;28;20492;-56
2022/02/08 19:43:47;;;;;;;;;;;16.40;34.30;;;;;;8333358;28;19964;-54
2022/02/08 19:47:48;;;;;;;;;;;16.40;34.20;;;;;;8333409;28;19996;-55
2022/02/08 19:51:48;;;;;;;;;;;16.30;34.70;;;;;;8333477;28;19920;-55
2022/02/08 19:56:06;;;;;;;;;;;16.40;34.20;;;;;;8333064;28;19994;-54
2022/02/08 20:00:10;;;;;;;;;;;16.30;34.10;;;;;;8338242;28;19921;-55
2022/02/08 20:04:18;;;;;;;;;;;16.30;34.20;;;;;;8332613;28;19920;-52
2022/02/08 20:08:21;;;;;;;;;;;16.30;34.10;;;;;;8328085;28;19924;-53
2022/02/08 20:12:22;;;;;;;;;;;16.30;34.10;;;;;;8305332;28;20337;-52
2022/02/08 20:16:24;;;;;;;;;;;16.30;34.20;;;;;;8331221;28;20008;-49
2022/02/08 20:20:26;;;;;;;;;;;16.30;34.10;;;;;;8332745;28;19926;-53
2022/02/08 20:24:26;;;;;;;;;;;16.30;34.10;;;;;;8332759;28;19928;-50
2022/02/08 20:32:39;;;;;;;;;;;16.30;34.10;;;;;;8334513;28;19921;-51
2022/02/08 20:36:39;;;;;;;;;;;16.30;34.10;;;;;;8332321;28;20382;-53
2022/02/08 20:40:40;;;;;;;;;;;16.30;34.10;;;;;;8331449;28;19917;-52
2022/02/08 20:44:44;;;;;;;;;;;16.30;34.10;;;;;;8331986;28;19917;-53
2022/02/08 20:48:48;;;;;;;;;;;16.30;34.10;;;;;;8331804;28;19913;-51
2022/02/08 20:52:56;;;;;;;;;;;16.30;34.10;;;;;;8331456;28;20082;-52
2022/02/08 20:57:10;;;;;;;;;;;16.30;34.10;;;;;;8335457;28;19913;-50
2022/02/08 21:01:10;;;;;;;;;;;16.30;34.10;;;;;;8330960;28;19917;-50
2022/02/08 21:09:26;;;;;;;;;;;16.30;34.10;;;;;;8336110;28;20133;-52
2022/02/08 21:13:47;;;;;;;;;;;16.30;34.10;;;;;;8330502;28;20344;-52
2022/02/08 21:17:47;;;;;;;;;;;16.30;34.10;;;;;;8331184;28;19917;-54
2022/02/08 21:21:48;;;;;;;;;;;16.30;34.10;;;;;;8330999;28;19913;-55
2022/02/08 21:25:50;;;;;;;;;;;16.30;34.10;;;;;;8330343;28;20115;-52
2022/02/08 21:30:17;;;;;;;;;;;16.30;34.10;;;;;;8330732;28;19921;-52
2022/02/08 21:47:43;;;;;;;;;;;16.20;34.00;;;;;;8330192;28;19959;-53
2022/02/08 21:51:58;;;;;;;;;;;16.20;34.00;;;;;;8297650;28;19960;-53
2022/02/08 21:56:00;;;;;;;;;;;16.30;34.10;;;;;;8326322;28;19921;-53
2022/02/08 22:00:01;;;;;;;;;;;16.20;34.00;;;;;;8330042;28;19980;-54
2022/02/08 22:04:01;;;;;;;;;;;16.30;34.10;;;;;;8329909;28;20020;-50
2022/02/08 22:21:03;;;;;;;;;;;16.30;34.00;;;;;;8327460;28;19939;-53
2022/02/08 22:33:30;;;;;;;;;;;16.30;34.00;;;;;;8336292;28;19925;-52
2022/02/08 22:37:35;;;;;;;;;;;16.30;33.90;;;;;;8337413;28;19913;-52
2022/02/08 22:45:42;;;;;;;;;;;16.30;34.00;;;;;;8338844;28;19917;-50
2022/02/08 22:49:42;;;;;;;;;;;16.30;34.00;;;;;;8334924;28;19948;-52
2022/02/08 22:53:43;;;;;;;;;;;16.30;34.00;;;;;;8335316;28;19933;-54
2022/02/08 22:57:43;;;;;;;;;;;16.30;34.00;;;;;;8335644;28;20007;-53
2022/02/08 23:01:45;;;;;;;;;;;16.30;34.00;;;;;;8333467;28;19925;-54
2022/02/08 23:05:45;;;;;;;;;;;16.20;33.90;;;;;;8311472;28;19921;-54
2022/02/08 23:09:53;;;;;;;;;;;16.20;33.90;;;;;;8317297;28;19950;-50
2022/02/08 23:14:06;;;;;;;;;;;16.20;33.90;;;;;;8334968;28;20004;-54
2022/02/08 23:39:42;;;;;;;;;;;16.10;33.90;;;;;;8338120;28;20006;-52
2022/02/08 23:43:44;;;;;;;;;;;16.10;33.90;;;;;;8333528;28;19925;-55
2022/02/08 23:47:55;;;;;;;;;;;16.10;33.90;;;;;;8334294;28;19913;-50
2022/02/08 23:51:59;;;;;;;;;;;16.10;33.90;;;;;;8336943;28;20454;-55
2022/02/08 23:56:09;;;;;;;;;;;16.10;33.90;;;;;;8333091;28;19929;-54
